sensor_id;sensor_type;location;lat;lon;timestamp;pressure;altitude;pressure_sealevel;temperature;humidity
15884;BME280;8040;50.254;10.960;2023-10-13T00:00:32;98232.22;;;17.12;100.00
15884;BME280;8040;50.254;10.960;2023-10-13T00:03:06;98245.81;;;17.21;100.00
15884;BME280;8040;50.254;10.960;2023-10-13T00:05:40;98231.78;;;17.22;100.00
15884;BME280;8040;50.254;10.960;2023-10-13T00:08:09;98224.44;;;17.14;100.00
15884;BME280;8040;50.254;10.960;2023-10-13T00:10:35;98215.88;;;17.16;100.00
15884;BME280;8040;50.254;10.960;2023-10-13T00:13:01;98223.66;;;17.26;100.00
15884;BME280;8040;50.254;10.960;2023-10-13T00:15:33;98185.06;;;17.07;100.00
15884;BME280;8040;50.254;10.960;2023-10-13T00:18:06;98201.84;;;17.17;100.00
15884;BME280;8040;50.254;10.960;2023-10-13T00:20:41;98226.84;;;17.28;100.00
15884;BME280;8040;50.254;10.960;2023-10-13T00:23:13;98179.91;;;17.05;100.00
15884;BME280;8040;50.254;10.960;2023-10-13T00:25:38;98160.72;;;16.93;100.00
15884;BME280;8040;50.254;10.960;2023-10-13T00:28:29;98205.72;;;17.16;100.00
15884;BME280;8040;50.254;10.960;2023-10-13T00:31:08;98204.91;;;17.16;100.00
15884;BME280;8040;50.254;10.960;2023-10-13T00:33:38;98186.06;;;17.02;100.00
15884;BME280;8040;50.254;10.960;2023-10-13T00:36:05;98156.16;;;16.85;100.00
15884;BME280;8040;50.254;10.960;2023-10-13T00:38:32;98189.06;;;17.09;100.00
15884;BME280;8040;50.254;10.960;2023-10-13T00:40:59;98227.44;;;17.21;100.00
15884;BME280;8040;50.254;10.960;2023-10-13T00:43:47;98216.34;;;17.06;100.00
15884;BME280;8040;50.254;10.960;2023-10-13T00:46:32;98203.22;;;16.99;100.00
15884;BME280;8040;50.254;10.960;2023-10-13T00:49:00;98184.25;;;16.82;100.00
15884;BME280;8040;50.254;10.960;2023-10-13T00:51:27;98220.31;;;17.08;100.00
15884;BME280;8040;50.254;10.960;2023-10-13T00:54:08;98234.63;;;17.14;100.00
15884;BME280;8040;50.254;10.960;2023-10-13T00:56:38;98208.91;;;17.06;100.00
15884;BME280;8040;50.254;10.960;2023-10-13T00:59:07;98188.47;;;16.92;100.00
15884;BME280;8040;50.254;10.960;2023-10-13T01:01:36;98210.88;;;17.06;100.00
15884;BME280;8040;50.254;10.960;2023-10-13T01:04:02;98210.41;;;17.04;100.00
15884;BME280;8040;50.254;10.960;2023-10-13T01:06:33;98205.25;;;17.02;100.00
15884;BME280;8040;50.254;10.960;2023-10-13T01:09:04;98209.25;;;17.05;100.00
15884;BME280;8040;50.254;10.960;2023-10-13T01:11:41;98200.81;;;16.98;100.00
15884;BME280;8040;50.254;10.960;2023-10-13T01:14:09;98167.22;;;16.77;100.00
15884;BME280;8040;50.254;10.960;2023-10-13T01:16:37;98211.31;;;17.08;100.00
15884;BME280;8040;50.254;10.960;2023-10-13T01:19:05;98207.53;;;17.00;100.00
15884;BME280;8040;50.254;10.960;2023-10-13T01:21:32;98209.63;;;17.03;100.00
15884;BME280;8040;50.254;10.960;2023-10-13T01:23:59;98202.06;;;17.00;100.00
15884;BME280;8040;50.254;10.960;2023-10-13T01:26:24;98194.44;;;16.94;100.00
15884;BME280;8040;50.254;10.960;2023-10-13T01:28:56;98186.19;;;16.94;100.00
15884;BME280;8040;50.254;10.960;2023-10-13T01:31:27;98174.22;;;16.98;100.00
15884;BME280;8040;50.254;10.960;2023-10-13T01:33:54;98184.69;;;16.96;100.00
15884;BME280;8040;50.254;10.960;2023-10-13T01:36:21;98187.91;;;16.98;100.00
15884;BME280;8040;50.254;10.960;2023-10-13T01:38:47;98203.66;;;17.13;100.00
15884;BME280;8040;50.254;10.960;2023-10-13T01:41:13;98203.00;;;17.16;100.00
15884;BME280;8040;50.254;10.960;2023-10-13T01:43:39;98164.63;;;16.92;100.00
15884;BME280;8040;50.254;10.960;2023-10-13T01:46:04;98169.28;;;17.04;100.00
15884;BME280;8040;50.254;10.960;2023-10-13T01:48:30;98151.81;;;16.96;100.00
15884;BME280;8040;50.254;10.960;2023-10-13T01:50:57;98188.81;;;17.14;100.00
15884;BME280;8040;50.254;10.960;2023-10-13T01:53:25;98154.31;;;16.89;100.00
15884;BME280;8040;50.254;10.960;2023-10-13T01:55:54;98165.88;;;17.07;100.00
15884;BME280;8040;50.254;10.960;2023-10-13T01:58:22;98193.38;;;17.22;100.00
15884;BME280;8040;50.254;10.960;2023-10-13T02:00:48;98186.97;;;17.18;100.00
15884;BME280;8040;50.254;10.960;2023-10-13T02:03:15;98111.19;;;16.74;100.00
15884;BME280;8040;50.254;10.960;2023-10-13T02:05:48;98189.50;;;17.23;100.00
15884;BME280;8040;50.254;10.960;2023-10-13T02:08:18;98168.72;;;17.10;100.00
15884;BME280;8040;50.254;10.960;2023-10-13T02:10:49;98174.22;;;17.10;100.00
15884;BME280;8040;50.254;10.960;2023-10-13T02:13:15;98173.88;;;17.12;100.00
15884;BME280;8040;50.254;10.960;2023-10-13T02:15:53;98168.41;;;17.12;100.00
15884;BME280;8040;50.254;10.960;2023-10-13T02:18:22;98208.91;;;17.30;100.00
15884;BME280;8040;50.254;10.960;2023-10-13T02:21:08;98186.31;;;17.21;100.00
15884;BME280;8040;50.254;10.960;2023-10-13T02:23:40;98207.31;;;17.29;100.00
15884;BME280;8040;50.254;10.960;2023-10-13T02:26:09;98162.78;;;17.08;100.00
15884;BME280;8040;50.254;10.960;2023-10-13T02:28:52;98162.91;;;17.12;100.00
15884;BME280;8040;50.254;10.960;2023-10-13T02:31:21;98143.38;;;17.01;100.00
15884;BME280;8040;50.254;10.960;2023-10-13T02:33:49;98171.25;;;17.15;100.00
15884;BME280;8040;50.254;10.960;2023-10-13T02:36:15;98174.97;;;17.23;100.00
15884;BME280;8040;50.254;10.960;2023-10-13T02:38:51;98180.84;;;17.21;100.00
15884;BME280;8040;50.254;10.960;2023-10-13T02:41:19;98134.91;;;16.94;100.00
15884;BME280;8040;50.254;10.960;2023-10-13T02:43:53;98169.63;;;17.14;100.00
15884;BME280;8040;50.254;10.960;2023-10-13T02:46:23;98154.78;;;17.15;100.00
15884;BME280;8040;50.254;10.960;2023-10-13T02:48:49;98154.09;;;17.18;100.00
15884;BME280;8040;50.254;10.960;2023-10-13T02:51:27;98169.88;;;17.21;100.00
15884;BME280;8040;50.254;10.960;2023-10-13T02:54:01;98127.75;;;16.90;100.00
15884;BME280;8040;50.254;10.960;2023-10-13T02:56:29;98164.13;;;17.14;100.00
15884;BME280;8040;50.254;10.960;2023-10-13T02:58:55;98162.53;;;17.13;100.00
15884;BME280;8040;50.254;10.960;2023-10-13T03:01:32;98161.66;;;17.21;100.00
15884;BME280;8040;50.254;10.960;2023-10-13T03:04:00;98097.38;;;16.83;100.00
15884;BME280;8040;50.254;10.960;2023-10-13T03:06:26;98146.09;;;17.13;100.00
15884;BME280;8040;50.254;10.960;2023-10-13T03:09:01;98139.59;;;17.18;100.00
15884;BME280;8040;50.254;10.960;2023-10-13T03:11:46;98127.13;;;17.08;100.00
15884;BME280;8040;50.254;10.960;2023-10-13T03:14:19;98155.00;;;17.22;100.00
15884;BME280;8040;50.254;10.960;2023-10-13T03:17:09;98149.97;;;17.24;100.00
15884;BME280;8040;50.254;10.960;2023-10-13T03:19:42;98135.50;;;17.12;100.00
15884;BME280;8040;50.254;10.960;2023-10-13T03:22:11;98134.25;;;17.09;100.00
15884;BME280;8040;50.254;10.960;2023-10-13T03:24:38;98149.31;;;17.15;100.00
15884;BME280;8040;50.254;10.960;2023-10-13T03:27:11;98133.78;;;17.07;100.00
15884;BME280;8040;50.254;10.960;2023-10-13T03:29:40;98113.00;;;16.94;100.00
15884;BME280;8040;50.254;10.960;2023-10-13T03:32:09;98115.84;;;16.98;100.00
15884;BME280;8040;50.254;10.960;2023-10-13T03:34:38;98125.22;;;17.09;100.00
15884;BME280;8040;50.254;10.960;2023-10-13T03:37:33;98124.06;;;17.10;100.00
15884;BME280;8040;50.254;10.960;2023-10-13T03:40:09;98143.72;;;17.24;100.00
15884;BME280;8040;50.254;10.960;2023-10-13T03:42:51;98096.53;;;17.06;100.00
15884;BME280;8040;50.254;10.960;2023-10-13T03:45:36;98118.13;;;17.20;100.00
15884;BME280;8040;50.254;10.960;2023-10-13T03:48:05;98102.72;;;17.15;100.00
15884;BME280;8040;50.254;10.960;2023-10-13T03:50:39;98125.06;;;17.29;100.00
15884;BME280;8040;50.254;10.960;2023-10-13T03:53:12;98104.44;;;17.08;100.00
15884;BME280;8040;50.254;10.960;2023-10-13T03:55:39;98120.63;;;17.25;100.00
15884;BME280;8040;50.254;10.960;2023-10-13T03:58:06;98101.56;;;17.16;100.00
15884;BME280;8040;50.254;10.960;2023-10-13T04:00:32;98073.69;;;17.02;100.00
15884;BME280;8040;50.254;10.960;2023-10-13T04:02:58;98098.34;;;17.14;100.00
15884;BME280;8040;50.254;10.960;2023-10-13T04:05:40;98122.00;;;17.31;100.00
15884;BME280;8040;50.254;10.960;2023-10-13T04:08:09;98108.19;;;17.27;100.00
15884;BME280;8040;50.254;10.960;2023-10-13T04:10:54;98099.47;;;17.25;100.00
15884;BME280;8040;50.254;10.960;2023-10-13T04:13:20;98089.56;;;17.21;100.00
15884;BME280;8040;50.254;10.960;2023-10-13T04:16:07;98101.53;;;17.28;100.00
15884;BME280;8040;50.254;10.960;2023-10-13T04:18:52;98070.06;;;17.10;100.00
15884;BME280;8040;50.254;10.960;2023-10-13T04:21:23;98033.13;;;16.80;100.00
15884;BME280;8040;50.254;10.960;2023-10-13T04:24:08;98069.34;;;17.13;100.00
15884;BME280;8040;50.254;10.960;2023-10-13T04:26:49;98090.09;;;17.26;100.00
15884;BME280;8040;50.254;10.960;2023-10-13T04:29:33;98085.34;;;17.23;100.00
15884;BME280;8040;50.254;10.960;2023-10-13T04:32:17;98064.56;;;17.10;100.00
15884;BME280;8040;50.254;10.960;2023-10-13T04:35:04;98037.88;;;16.95;100.00
15884;BME280;8040;50.254;10.960;2023-10-13T04:37:39;98077.44;;;17.22;100.00
15884;BME280;8040;50.254;10.960;2023-10-13T04:40:41;98079.41;;;17.21;100.00
15884;BME280;8040;50.254;10.960;2023-10-13T04:43:23;98078.03;;;17.27;100.00
15884;BME280;8040;50.254;10.960;2023-10-13T04:45:59;98042.88;;;17.05;100.00
15884;BME280;8040;50.254;10.960;2023-10-13T04:48:39;98060.22;;;17.21;100.00
15884;BME280;8040;50.254;10.960;2023-10-13T04:51:05;98072.88;;;17.26;100.00
15884;BME280;8040;50.254;10.960;2023-10-13T04:54:09;98042.19;;;17.08;100.00
15884;BME280;8040;50.254;10.960;2023-10-13T04:56:51;98056.13;;;17.15;100.00
15884;BME280;8040;50.254;10.960;2023-10-13T04:59:39;98055.09;;;17.08;100.00
15884;BME280;8040;50.254;10.960;2023-10-13T05:02:24;98064.88;;;17.21;100.00
15884;BME280;8040;50.254;10.960;2023-10-13T05:04:58;98069.31;;;17.25;100.00
15884;BME280;8040;50.254;10.960;2023-10-13T05:07:42;98048.81;;;17.07;100.00
15884;BME280;8040;50.254;10.960;2023-10-13T05:10:27;98059.19;;;17.14;100.00
15884;BME280;8040;50.254;10.960;2023-10-13T05:13:10;98073.91;;;17.21;100.00
15884;BME280;8040;50.254;10.960;2023-10-13T05:15:55;98089.22;;;17.22;100.00
15884;BME280;8040;50.254;10.960;2023-10-13T05:18:39;98070.06;;;17.10;100.00
15884;BME280;8040;50.254;10.960;2023-10-13T05:21:23;98079.75;;;17.20;100.00
15884;BME280;8040;50.254;10.960;2023-10-13T05:24:07;98077.78;;;17.20;100.00
15884;BME280;8040;50.254;10.960;2023-10-13T05:26:52;98086.00;;;17.20;100.00
15884;BME280;8040;50.254;10.960;2023-10-13T05:29:43;98077.69;;;17.17;100.00
15884;BME280;8040;50.254;10.960;2023-10-13T05:32:27;98075.75;;;17.17;100.00
15884;BME280;8040;50.254;10.960;2023-10-13T05:35:12;98090.00;;;17.23;100.00
15884;BME280;8040;50.254;10.960;2023-10-13T05:37:56;98051.91;;;17.06;100.00
15884;BME280;8040;50.254;10.960;2023-10-13T05:40:55;98063.09;;;17.13;100.00
15884;BME280;8040;50.254;10.960;2023-10-13T05:43:40;98070.16;;;17.14;100.00
15884;BME280;8040;50.254;10.960;2023-10-13T05:46:25;98069.34;;;17.13;100.00
15884;BME280;8040;50.254;10.960;2023-10-13T05:48:52;98033.53;;;16.94;100.00
15884;BME280;8040;50.254;10.960;2023-10-13T05:51:27;98063.97;;;17.17;100.00
15884;BME280;8040;50.254;10.960;2023-10-13T05:54:13;98076.16;;;17.31;100.00
15884;BME280;8040;50.254;10.960;2023-10-13T05:56:43;98089.63;;;17.36;100.00
15884;BME280;8040;50.254;10.960;2023-10-13T05:59:35;98090.44;;;17.37;100.00
15884;BME280;8040;50.254;10.960;2023-10-13T06:02:22;98080.28;;;17.37;100.00
15884;BME280;8040;50.254;10.960;2023-10-13T06:05:10;98086.69;;;17.41;100.00
15884;BME280;8040;50.254;10.960;2023-10-13T06:07:58;98088.28;;;17.42;100.00
15884;BME280;8040;50.254;10.960;2023-10-13T06:10:42;98077.41;;;17.34;100.00
15884;BME280;8040;50.254;10.960;2023-10-13T06:13:27;98075.13;;;17.36;100.00
15884;BME280;8040;50.254;10.960;2023-10-13T06:16:14;98062.00;;;17.29;100.00
15884;BME280;8040;50.254;10.960;2023-10-13T06:18:58;98047.28;;;17.22;100.00
15884;BME280;8040;50.254;10.960;2023-10-13T06:21:43;98065.53;;;17.30;100.00
15884;BME280;8040;50.254;10.960;2023-10-13T06:24:28;98075.91;;;17.48;100.00
15884;BME280;8040;50.254;10.960;2023-10-13T06:27:12;98070.22;;;17.41;100.00
15884;BME280;8040;50.254;10.960;2023-10-13T06:29:59;98076.34;;;17.50;100.00
15884;BME280;8040;50.254;10.960;2023-10-13T06:32:26;98091.91;;;17.58;100.00
15884;BME280;8040;50.254;10.960;2023-10-13T06:34:55;98075.44;;;17.58;100.00
15884;BME280;8040;50.254;10.960;2023-10-13T06:37:30;98092.34;;;17.60;100.00
15884;BME280;8040;50.254;10.960;2023-10-13T06:40:00;98075.44;;;17.58;100.00
15884;BME280;8040;50.254;10.960;2023-10-13T06:42:32;98062.88;;;17.57;100.00
15884;BME280;8040;50.254;10.960;2023-10-13T06:45:00;98014.47;;;17.37;100.00
15884;BME280;8040;50.254;10.960;2023-10-13T06:48:07;98017.31;;;17.41;100.00
15884;BME280;8040;50.254;10.960;2023-10-13T06:50:37;98080.09;;;17.85;100.00
15884;BME280;8040;50.254;10.960;2023-10-13T06:53:33;98069.38;;;17.80;100.00
15884;BME280;8040;50.254;10.960;2023-10-13T06:56:08;98070.63;;;17.83;100.00
15884;BME280;8040;50.254;10.960;2023-10-13T06:58:38;98037.47;;;17.60;100.00
15884;BME280;8040;50.254;10.960;2023-10-13T07:01:27;98057.53;;;17.76;99.79
15884;BME280;8040;50.254;10.960;2023-10-13T07:04:15;98089.19;;;18.01;99.37
15884;BME280;8040;50.254;10.960;2023-10-13T07:06:49;98088.38;;;18.01;98.67
15884;BME280;8040;50.254;10.960;2023-10-13T07:09:21;98086.28;;;18.10;98.33
15884;BME280;8040;50.254;10.960;2023-10-13T07:12:07;98092.03;;;18.20;97.91
15884;BME280;8040;50.254;10.960;2023-10-13T07:14:49;98081.84;;;18.21;97.35
15884;BME280;8040;50.254;10.960;2023-10-13T07:17:19;98062.00;;;18.12;96.86
15884;BME280;8040;50.254;10.960;2023-10-13T07:19:52;98092.19;;;18.39;95.84
15884;BME280;8040;50.254;10.960;2023-10-13T07:22:49;98061.84;;;18.20;95.97
15884;BME280;8040;50.254;10.960;2023-10-13T07:26:24;98054.34;;;18.33;95.12
15884;BME280;8040;50.254;10.960;2023-10-13T07:28:56;98075.09;;;18.61;94.33
15884;BME280;8040;50.254;10.960;2023-10-13T07:31:21;98071.44;;;18.73;93.66
15884;BME280;8040;50.254;10.960;2023-10-13T07:33:52;98088.34;;;18.90;92.49
15884;BME280;8040;50.254;10.960;2023-10-13T07:36:32;98067.78;;;18.84;90.21
15884;BME280;8040;50.254;10.960;2023-10-13T07:39:13;98085.19;;;19.07;89.20
15884;BME280;8040;50.254;10.960;2023-10-13T07:41:54;98046.50;;;18.81;87.94
15884;BME280;8040;50.254;10.960;2023-10-13T07:44:29;98076.78;;;19.00;87.81
15884;BME280;8040;50.254;10.960;2023-10-13T07:46:57;98065.72;;;18.97;86.23
15884;BME280;8040;50.254;10.960;2023-10-13T07:49:39;98051.44;;;18.91;85.99
15884;BME280;8040;50.254;10.960;2023-10-13T07:52:09;98092.91;;;19.17;86.00
15884;BME280;8040;50.254;10.960;2023-10-13T07:54:52;98060.47;;;19.07;86.32
15884;BME280;8040;50.254;10.960;2023-10-13T07:57:39;98062.94;;;19.12;85.95
15884;BME280;8040;50.254;10.960;2023-10-13T08:00:24;98088.63;;;19.35;84.98
15884;BME280;8040;50.254;10.960;2023-10-13T08:03:11;98071.25;;;19.31;84.69
15884;BME280;8040;50.254;10.960;2023-10-13T08:05:43;98072.19;;;19.39;84.53
15884;BME280;8040;50.254;10.960;2023-10-13T08:08:24;98081.84;;;19.48;84.15
15884;BME280;8040;50.254;10.960;2023-10-13T08:11:07;98070.81;;;19.48;83.54
15884;BME280;8040;50.254;10.960;2023-10-13T08:13:55;98051.72;;;19.36;82.59
15884;BME280;8040;50.254;10.960;2023-10-13T08:16:24;98081.56;;;19.53;81.36
15884;BME280;8040;50.254;10.960;2023-10-13T08:18:55;98066.03;;;19.45;81.39
15884;BME280;8040;50.254;10.960;2023-10-13T08:21:21;98070.91;;;19.52;81.27
15884;BME280;8040;50.254;10.960;2023-10-13T08:23:50;98091.41;;;19.73;81.15
15884;BME280;8040;50.254;10.960;2023-10-13T08:26:18;98081.19;;;19.74;80.81
15884;BME280;8040;50.254;10.960;2023-10-13T08:29:03;98084.09;;;19.81;80.45
15884;BME280;8040;50.254;10.960;2023-10-13T08:31:51;98081.41;;;19.84;79.74
15884;BME280;8040;50.254;10.960;2023-10-13T08:34:36;98084.56;;;19.86;79.35
15884;BME280;8040;50.254;10.960;2023-10-13T08:37:26;98090.66;;;19.95;78.54
15884;BME280;8040;50.254;10.960;2023-10-13T08:39:53;98055.03;;;19.83;78.77
15884;BME280;8040;50.254;10.960;2023-10-13T08:42:31;98081.72;;;20.02;78.33
15884;BME280;8040;50.254;10.960;2023-10-13T08:45:13;98059.94;;;19.93;78.77
15884;BME280;8040;50.254;10.960;2023-10-13T08:47:52;98063.44;;;19.90;77.88
15884;BME280;8040;50.254;10.960;2023-10-13T08:50:42;98050.66;;;19.82;78.09
15884;BME280;8040;50.254;10.960;2023-10-13T08:56:06;98067.34;;;20.08;78.27
15884;BME280;8040;50.254;10.960;2023-10-13T08:58:41;98074.38;;;20.06;77.74
15884;BME280;8040;50.254;10.960;2023-10-13T09:01:26;98070.22;;;20.15;77.32
15884;BME280;8040;50.254;10.960;2023-10-13T09:04:17;98054.47;;;20.16;77.45
15884;BME280;8040;50.254;10.960;2023-10-13T09:06:44;98068.88;;;20.28;76.02
15884;BME280;8040;50.254;10.960;2023-10-13T09:09:23;98052.53;;;20.16;74.59
15884;BME280;8040;50.254;10.960;2023-10-13T09:11:53;98077.03;;;20.21;75.44
15884;BME280;8040;50.254;10.960;2023-10-13T09:14:33;98038.03;;;20.00;74.18
15884;BME280;8040;50.254;10.960;2023-10-13T09:17:05;98052.88;;;20.15;73.72
15884;BME280;8040;50.254;10.960;2023-10-13T09:19:51;98007.44;;;20.05;74.10
15884;BME280;8040;50.254;10.960;2023-10-13T09:22:37;98052.69;;;20.49;72.67
15884;BME280;8040;50.254;10.960;2023-10-13T09:25:03;98019.53;;;20.42;71.48
15884;BME280;8040;50.254;10.960;2023-10-13T09:27:39;98039.22;;;20.67;71.08
15884;BME280;8040;50.254;10.960;2023-10-13T09:30:05;98029.47;;;20.73;70.25
15884;BME280;8040;50.254;10.960;2023-10-13T09:33:02;98010.28;;;20.80;69.57
15884;BME280;8040;50.254;10.960;2023-10-13T09:35:30;98044.94;;;21.03;68.81
15884;BME280;8040;50.254;10.960;2023-10-13T09:37:59;98008.75;;;20.82;68.13
15884;BME280;8040;50.254;10.960;2023-10-13T09:40:30;98040.63;;;21.06;67.68
15884;BME280;8040;50.254;10.960;2023-10-13T09:42:59;98008.44;;;20.87;67.53
15884;BME280;8040;50.254;10.960;2023-10-13T09:45:31;97997.66;;;20.79;66.81
15884;BME280;8040;50.254;10.960;2023-10-13T09:48:02;98017.25;;;20.96;66.05
15884;BME280;8040;50.254;10.960;2023-10-13T09:50:37;98019.16;;;20.92;65.20
15884;BME280;8040;50.254;10.960;2023-10-13T09:53:04;98008.56;;;20.94;64.89
15884;BME280;8040;50.254;10.960;2023-10-13T09:55:44;98011.81;;;21.03;64.78
15884;BME280;8040;50.254;10.960;2023-10-13T09:58:12;98024.34;;;21.23;65.24
15884;BME280;8040;50.254;10.960;2023-10-13T10:00:50;97962.06;;;20.93;64.71
15884;BME280;8040;50.254;10.960;2023-10-13T10:03:45;98017.75;;;21.31;64.94
15884;BME280;8040;50.254;10.960;2023-10-13T10:06:23;97970.91;;;21.05;64.94
15884;BME280;8040;50.254;10.960;2023-10-13T10:09:05;97981.63;;;21.14;64.89
15884;BME280;8040;50.254;10.960;2023-10-13T10:15:17;98005.06;;;21.27;63.84
15884;BME280;8040;50.254;10.960;2023-10-13T10:17:53;97934.09;;;20.94;63.89
15884;BME280;8040;50.254;10.960;2023-10-13T10:20:28;97963.97;;;21.18;63.71
15884;BME280;8040;50.254;10.960;2023-10-13T10:23:12;98003.28;;;21.41;63.15
15884;BME280;8040;50.254;10.960;2023-10-13T10:25:48;97998.97;;;21.44;62.69
15884;BME280;8040;50.254;10.960;2023-10-13T10:28:15;97994.69;;;21.50;61.91
15884;BME280;8040;50.254;10.960;2023-10-13T10:30:42;97953.88;;;21.29;61.29
15884;BME280;8040;50.254;10.960;2023-10-13T10:33:09;97980.59;;;21.58;61.68
15884;BME280;8040;50.254;10.960;2023-10-13T10:35:42;97960.84;;;21.53;61.16
15884;BME280;8040;50.254;10.960;2023-10-13T10:38:10;97967.66;;;21.62;61.05
15884;BME280;8040;50.254;10.960;2023-10-13T10:40:56;97952.25;;;21.61;60.94
15884;BME280;8040;50.254;10.960;2023-10-13T10:46:26;97969.88;;;21.83;60.69
15884;BME280;8040;50.254;10.960;2023-10-13T10:49:05;97947.78;;;21.83;60.80
15884;BME280;8040;50.254;10.960;2023-10-13T10:51:32;97964.34;;;21.83;58.98
15884;BME280;8040;50.254;10.960;2023-10-13T10:53:59;97943.41;;;21.78;59.41
15884;BME280;8040;50.254;10.960;2023-10-13T10:56:36;97936.69;;;21.79;59.52
15884;BME280;8040;50.254;10.960;2023-10-13T10:59:06;97907.41;;;21.71;59.93
15884;BME280;8040;50.254;10.960;2023-10-13T11:01:45;97934.91;;;21.97;58.83
15884;BME280;8040;50.254;10.960;2023-10-13T11:04:16;97897.34;;;21.93;59.85
15884;BME280;8040;50.254;10.960;2023-10-13T11:06:53;97895.91;;;22.06;59.62
15884;BME280;8040;50.254;10.960;2023-10-13T11:11:53;97914.16;;;22.21;57.92
15884;BME280;8040;50.254;10.960;2023-10-13T11:14:27;97897.56;;;22.17;58.57
15884;BME280;8040;50.254;10.960;2023-10-13T11:16:54;97909.53;;;22.32;58.36
15884;BME280;8040;50.254;10.960;2023-10-13T11:19:21;97918.22;;;22.34;57.85
15884;BME280;8040;50.254;10.960;2023-10-13T11:21:54;97911.91;;;22.33;57.35
15884;BME280;8040;50.254;10.960;2023-10-13T11:24:26;97896.44;;;22.25;56.53
15884;BME280;8040;50.254;10.960;2023-10-13T11:26:51;97903.53;;;22.26;55.78
15884;BME280;8040;50.254;10.960;2023-10-13T11:29:31;97872.31;;;22.19;56.10
15884;BME280;8040;50.254;10.960;2023-10-13T11:31:59;97895.69;;;22.28;55.86
15884;BME280;8040;50.254;10.960;2023-10-13T11:34:25;97916.78;;;22.50;56.12
15884;BME280;8040;50.254;10.960;2023-10-13T11:36:55;97873.22;;;22.33;55.08
15884;BME280;8040;50.254;10.960;2023-10-13T11:39:20;97901.13;;;22.75;55.83
15884;BME280;8040;50.254;10.960;2023-10-13T11:41:58;97891.69;;;22.83;56.37
15884;BME280;8040;50.254;10.960;2023-10-13T11:44:23;97880.28;;;22.88;56.61
15884;BME280;8040;50.254;10.960;2023-10-13T11:46:49;97888.59;;;22.92;55.22
15884;BME280;8040;50.254;10.960;2023-10-13T11:49:24;97848.56;;;22.75;55.11
15884;BME280;8040;50.254;10.960;2023-10-13T11:51:52;97887.47;;;23.10;55.99
15884;BME280;8040;50.254;10.960;2023-10-13T11:54:19;97886.34;;;23.18;56.19
15884;BME280;8040;50.254;10.960;2023-10-13T11:56:47;97866.88;;;23.04;55.89
15884;BME280;8040;50.254;10.960;2023-10-13T11:59:13;97866.88;;;23.01;55.98
15884;BME280;8040;50.254;10.960;2023-10-13T12:01:50;97866.50;;;23.02;56.31
15884;BME280;8040;50.254;10.960;2023-10-13T12:04:35;97874.38;;;22.97;56.88
15884;BME280;8040;50.254;10.960;2023-10-13T12:07:07;97858.09;;;22.81;56.89
15884;BME280;8040;50.254;10.960;2023-10-13T12:09:39;97874.31;;;22.86;57.53
15884;BME280;8040;50.254;10.960;2023-10-13T12:12:24;97845.78;;;22.68;57.96
15884;BME280;8040;50.254;10.960;2023-10-13T12:14:50;97859.28;;;22.80;58.04
15884;BME280;8040;50.254;10.960;2023-10-13T12:17:27;97860.06;;;22.74;58.27
15884;BME280;8040;50.254;10.960;2023-10-13T12:19:57;97850.53;;;22.64;58.01
15884;BME280;8040;50.254;10.960;2023-10-13T12:22:24;97856.09;;;22.71;58.29
15884;BME280;8040;50.254;10.960;2023-10-13T12:24:57;97855.72;;;22.76;58.28
15884;BME280;8040;50.254;10.960;2023-10-13T12:27:22;97847.44;;;22.80;58.82
15884;BME280;8040;50.254;10.960;2023-10-13T12:30:00;97834.00;;;22.78;57.90
15884;BME280;8040;50.254;10.960;2023-10-13T12:32:33;97836.41;;;22.87;57.31
15884;BME280;8040;50.254;10.960;2023-10-13T12:35:00;97828.13;;;22.97;57.92
15884;BME280;8040;50.254;10.960;2023-10-13T12:37:45;97812.72;;;22.93;57.67
15884;BME280;8040;50.254;10.960;2023-10-13T12:40:17;97826.19;;;23.12;57.06
15884;BME280;8040;50.254;10.960;2023-10-13T12:43:02;97783.06;;;22.93;56.64
15884;BME280;8040;50.254;10.960;2023-10-13T12:45:48;97763.66;;;22.79;56.61
15884;BME280;8040;50.254;10.960;2023-10-13T12:48:33;97807.22;;;23.10;56.86
15884;BME280;8040;50.254;10.960;2023-10-13T12:51:18;97815.13;;;23.15;55.75
15884;BME280;8040;50.254;10.960;2023-10-13T12:54:06;97817.50;;;23.13;55.89
15884;BME280;8040;50.254;10.960;2023-10-13T12:56:41;97794.56;;;23.02;56.05
15884;BME280;8040;50.254;10.960;2023-10-13T12:59:10;97805.63;;;23.09;56.38
15884;BME280;8040;50.254;10.960;2023-10-13T13:01:39;97783.13;;;23.07;55.66
15884;BME280;8040;50.254;10.960;2023-10-13T13:04:09;97779.91;;;22.98;54.82
15884;BME280;8040;50.254;10.960;2023-10-13T13:06:43;97805.69;;;23.16;55.33
15884;BME280;8040;50.254;10.960;2023-10-13T13:09:09;97795.78;;;23.15;53.70
15884;BME280;8040;50.254;10.960;2023-10-13T13:11:35;97783.50;;;23.09;54.18
15884;BME280;8040;50.254;10.960;2023-10-13T13:14:05;97789.84;;;23.13;53.92
15884;BME280;8040;50.254;10.960;2023-10-13T13:16:33;97795.03;;;23.25;54.10
15884;BME280;8040;50.254;10.960;2023-10-13T13:18:59;97803.34;;;23.29;52.16
15884;BME280;8040;50.254;10.960;2023-10-13T13:21:24;97781.19;;;23.22;52.34
15884;BME280;8040;50.254;10.960;2023-10-13T13:23:50;97773.66;;;23.26;52.64
15884;BME280;8040;50.254;10.960;2023-10-13T13:26:16;97783.59;;;23.37;53.22
15884;BME280;8040;50.254;10.960;2023-10-13T13:28:45;97793.84;;;23.33;52.85
15884;BME280;8040;50.254;10.960;2023-10-13T13:31:15;97765.31;;;23.08;52.28
15884;BME280;8040;50.254;10.960;2023-10-13T13:33:41;97768.47;;;23.10;52.36
15884;BME280;8040;50.254;10.960;2023-10-13T13:36:11;97758.97;;;23.01;53.28
15884;BME280;8040;50.254;10.960;2023-10-13T13:38:40;97771.63;;;23.02;51.50
15884;BME280;8040;50.254;10.960;2023-10-13T13:41:16;97778.00;;;23.16;51.28
15884;BME280;8040;50.254;10.960;2023-10-13T13:43:43;97778.81;;;23.17;52.07
15884;BME280;8040;50.254;10.960;2023-10-13T13:46:15;97761.00;;;23.14;51.67
15884;BME280;8040;50.254;10.960;2023-10-13T13:48:42;97759.06;;;23.18;51.38